sensor_id;sensor_type;location;lat;lon;timestamp;P1;durP1;ratioP1;P2;durP2;ratioP2
57335;SDS011;43171;50.994;18.204;2023-12-20T00:06:25;13.70;;;8.30;;
57335;SDS011;43171;50.994;18.204;2023-12-20T00:16:07;13.80;;;9.50;;
57335;SDS011;43171;50.994;18.204;2023-12-20T00:25:49;13.10;;;9.60;;
57335;SDS011;43171;50.994;18.204;2023-12-20T00:35:31;17.20;;;7.90;;
57335;SDS011;43171;50.994;18.204;2023-12-20T00:45:14;12.60;;;8.80;;
57335;SDS011;43171;50.994;18.204;2023-12-20T00:54:56;18.00;;;10.30;;
57335;SDS011;43171;50.994;18.204;2023-12-20T01:04:38;7.40;;;5.30;;
57335;SDS011;43171;50.994;18.204;2023-12-20T01:14:20;12.20;;;8.80;;
57335;SDS011;43171;50.994;18.204;2023-12-20T01:24:03;20.20;;;10.20;;
57335;SDS011;43171;50.994;18.204;2023-12-20T01:33:45;16.20;;;11.90;;
57335;SDS011;43171;50.994;18.204;2023-12-20T01:43:29;18.10;;;12.40;;
57335;SDS011;43171;50.994;18.204;2023-12-20T01:53:14;21.00;;;11.80;;
57335;SDS011;43171;50.994;18.204;2023-12-20T02:02:57;16.70;;;8.20;;
57335;SDS011;43171;50.994;18.204;2023-12-20T02:12:44;14.30;;;10.30;;
57335;SDS011;43171;50.994;18.204;2023-12-20T02:15:10;19.60;;;14.10;;
57335;SDS011;43171;50.994;18.204;2023-12-20T02:24:52;13.00;;;8.70;;
57335;SDS011;43171;50.994;18.204;2023-12-20T02:34:34;20.10;;;11.30;;
57335;SDS011;43171;50.994;18.204;2023-12-20T02:44:16;16.70;;;10.00;;
57335;SDS011;43171;50.994;18.204;2023-12-20T02:53:57;17.20;;;10.20;;
57335;SDS011;43171;50.994;18.204;2023-12-20T03:03:39;18.00;;;11.70;;
57335;SDS011;43171;50.994;18.204;2023-12-20T03:13:21;20.40;;;13.60;;
57335;SDS011;43171;50.994;18.204;2023-12-20T03:23:03;15.20;;;10.30;;
57335;SDS011;43171;50.994;18.204;2023-12-20T03:32:45;29.60;;;16.80;;
57335;SDS011;43171;50.994;18.204;2023-12-20T03:42:27;20.70;;;14.00;;
57335;SDS011;43171;50.994;18.204;2023-12-20T03:52:09;25.90;;;16.30;;
57335;SDS011;43171;50.994;18.204;2023-12-20T04:09:11;34.40;;;19.00;;
57335;SDS011;43171;50.994;18.204;2023-12-20T04:18:53;25.50;;;16.10;;
57335;SDS011;43171;50.994;18.204;2023-12-20T04:28:35;27.60;;;17.20;;
57335;SDS011;43171;50.994;18.204;2023-12-20T04:38:17;33.10;;;22.50;;
57335;SDS011;43171;50.994;18.204;2023-12-20T04:48:02;33.60;;;19.50;;
57335;SDS011;43171;50.994;18.204;2023-12-20T04:57:44;37.90;;;18.30;;
57335;SDS011;43171;50.994;18.204;2023-12-20T05:07:26;37.30;;;19.40;;
57335;SDS011;43171;50.994;18.204;2023-12-20T05:17:08;36.00;;;17.30;;
57335;SDS011;43171;50.994;18.204;2023-12-20T05:26:52;23.90;;;15.20;;
57335;SDS011;43171;50.994;18.204;2023-12-20T05:36:34;16.90;;;9.40;;
57335;SDS011;43171;50.994;18.204;2023-12-20T05:46:16;3.10;;;1.50;;
57335;SDS011;43171;50.994;18.204;2023-12-20T05:55:58;4.90;;;3.40;;
57335;SDS011;43171;50.994;18.204;2023-12-20T06:05:41;8.90;;;4.20;;
57335;SDS011;43171;50.994;18.204;2023-12-20T06:15:24;2.70;;;0.70;;
57335;SDS011;43171;50.994;18.204;2023-12-20T06:25:06;8.50;;;3.70;;
57335;SDS011;43171;50.994;18.204;2023-12-20T06:34:49;3.10;;;1.90;;
57335;SDS011;43171;50.994;18.204;2023-12-20T06:44:31;2.90;;;1.80;;
57335;SDS011;43171;50.994;18.204;2023-12-20T06:54:14;3.00;;;1.30;;
57335;SDS011;43171;50.994;18.204;2023-12-20T07:03:55;2.00;;;1.60;;
57335;SDS011;43171;50.994;18.204;2023-12-20T07:13:37;9.60;;;2.60;;
57335;SDS011;43171;50.994;18.204;2023-12-20T07:16:03;5.50;;;4.40;;
57335;SDS011;43171;50.994;18.204;2023-12-20T07:25:46;9.30;;;5.60;;
57335;SDS011;43171;50.994;18.204;2023-12-20T07:35:29;4.40;;;3.40;;
57335;SDS011;43171;50.994;18.204;2023-12-20T07:45:11;2.10;;;1.80;;
57335;SDS011;43171;50.994;18.204;2023-12-20T07:54:54;4.20;;;2.80;;
57335;SDS011;43171;50.994;18.204;2023-12-20T08:04:36;3.80;;;2.80;;
57335;SDS011;43171;50.994;18.204;2023-12-20T08:14:18;4.20;;;2.50;;
57335;SDS011;43171;50.994;18.204;2023-12-20T08:24:00;7.70;;;3.60;;
57335;SDS011;43171;50.994;18.204;2023-12-20T08:33:45;16.40;;;8.70;;
57335;SDS011;43171;50.994;18.204;2023-12-20T08:43:30;4.50;;;3.90;;
57335;SDS011;43171;50.994;18.204;2023-12-20T08:53:15;9.60;;;4.90;;
57335;SDS011;43171;50.994;18.204;2023-12-20T09:02:59;10.90;;;6.00;;
57335;SDS011;43171;50.994;18.204;2023-12-20T09:12:47;9.80;;;6.90;;
57335;SDS011;43171;50.994;18.204;2023-12-20T09:22:33;8.00;;;5.50;;
57335;SDS011;43171;50.994;18.204;2023-12-20T09:32:16;12.70;;;6.20;;
57335;SDS011;43171;50.994;18.204;2023-12-20T09:51:43;6.50;;;3.70;;
57335;SDS011;43171;50.994;18.204;2023-12-20T10:01:32;7.20;;;3.90;;
57335;SDS011;43171;50.994;18.204;2023-12-20T10:11:15;2.90;;;2.60;;
57335;SDS011;43171;50.994;18.204;2023-12-20T10:21:01;3.70;;;2.00;;
57335;SDS011;43171;50.994;18.204;2023-12-20T10:30:53;1.80;;;1.50;;
57335;SDS011;43171;50.994;18.204;2023-12-20T10:40:45;3.10;;;1.90;;
57335;SDS011;43171;50.994;18.204;2023-12-20T10:50:28;5.30;;;2.60;;
57335;SDS011;43171;50.994;18.204;2023-12-20T11:00:16;4.90;;;2.80;;
57335;SDS011;43171;50.994;18.204;2023-12-20T11:10:25;5.00;;;2.70;;
57335;SDS011;43171;50.994;18.204;2023-12-20T11:20:35;3.80;;;3.40;;
57335;SDS011;43171;50.994;18.204;2023-12-20T11:30:52;4.50;;;2.80;;
57335;SDS011;43171;50.994;18.204;2023-12-20T11:40:45;3.50;;;3.20;;
57335;SDS011;43171;50.994;18.204;2023-12-20T11:50:45;6.60;;;5.90;;
57335;SDS011;43171;50.994;18.204;2023-12-20T12:00:28;12.80;;;7.50;;
57335;SDS011;43171;50.994;18.204;2023-12-20T12:10:15;3.40;;;3.10;;
57335;SDS011;43171;50.994;18.204;2023-12-20T12:20:04;10.50;;;2.60;;
57335;SDS011;43171;50.994;18.204;2023-12-20T12:30:04;4.80;;;2.30;;
57335;SDS011;43171;50.994;18.204;2023-12-20T12:39:55;1.40;;;1.30;;
57335;SDS011;43171;50.994;18.204;2023-12-20T12:49:37;2.70;;;1.40;;
57335;SDS011;43171;50.994;18.204;2023-12-20T12:59:22;6.60;;;3.00;;
57335;SDS011;43171;50.994;18.204;2023-12-20T13:09:06;10.70;;;3.00;;
57335;SDS011;43171;50.994;18.204;2023-12-20T13:18:50;4.10;;;1.50;;
57335;SDS011;43171;50.994;18.204;2023-12-20T13:28:32;3.80;;;1.80;;
57335;SDS011;43171;50.994;18.204;2023-12-20T13:38:14;3.00;;;2.20;;
57335;SDS011;43171;50.994;18.204;2023-12-20T13:40:40;6.30;;;4.00;;
57335;SDS011;43171;50.994;18.204;2023-12-20T13:50:24;13.80;;;8.70;;
57335;SDS011;43171;50.994;18.204;2023-12-20T14:00:06;9.10;;;6.80;;
57335;SDS011;43171;50.994;18.204;2023-12-20T14:09:56;8.60;;;3.70;;
57335;SDS011;43171;50.994;18.204;2023-12-20T14:19:38;5.00;;;2.90;;
57335;SDS011;43171;50.994;18.204;2023-12-20T14:24:31;8.60;;;5.90;;
57335;SDS011;43171;50.994;18.204;2023-12-20T14:34:14;5.10;;;3.80;;
57335;SDS011;43171;50.994;18.204;2023-12-20T14:44:00;9.40;;;5.20;;
57335;SDS011;43171;50.994;18.204;2023-12-20T14:53:47;15.60;;;11.20;;
57335;SDS011;43171;50.994;18.204;2023-12-20T14:58:38;11.10;;;7.40;;
57335;SDS011;43171;50.994;18.204;2023-12-20T15:08:24;9.10;;;6.00;;
57335;SDS011;43171;50.994;18.204;2023-12-20T15:18:07;7.70;;;5.80;;
57335;SDS011;43171;50.994;18.204;2023-12-20T15:27:56;9.00;;;6.40;;
57335;SDS011;43171;50.994;18.204;2023-12-20T15:37:41;11.10;;;6.60;;
57335;SDS011;43171;50.994;18.204;2023-12-20T15:47:29;8.50;;;4.20;;
57335;SDS011;43171;50.994;18.204;2023-12-20T15:57:12;11.70;;;5.40;;
57335;SDS011;43171;50.994;18.204;2023-12-20T16:06:58;9.60;;;5.20;;
57335;SDS011;43171;50.994;18.204;2023-12-20T16:16:49;21.50;;;7.80;;
57335;SDS011;43171;50.994;18.204;2023-12-20T16:26:31;7.40;;;5.30;;
57335;SDS011;43171;50.994;18.204;2023-12-20T16:36:13;12.20;;;5.00;;
57335;SDS011;43171;50.994;18.204;2023-12-20T16:45:55;7.50;;;3.50;;
57335;SDS011;43171;50.994;18.204;2023-12-20T16:55:37;3.90;;;2.50;;
57335;SDS011;43171;50.994;18.204;2023-12-20T17:05:19;5.20;;;2.90;;
57335;SDS011;43171;50.994;18.204;2023-12-20T17:15:01;12.70;;;4.20;;
57335;SDS011;43171;50.994;18.204;2023-12-20T17:24:45;5.00;;;4.30;;
57335;SDS011;43171;50.994;18.204;2023-12-20T17:34:30;5.60;;;3.80;;
57335;SDS011;43171;50.994;18.204;2023-12-20T17:44:12;3.70;;;2.50;;
57335;SDS011;43171;50.994;18.204;2023-12-20T17:51:29;6.70;;;4.50;;
57335;SDS011;43171;50.994;18.204;2023-12-20T18:01:13;11.50;;;5.60;;
57335;SDS011;43171;50.994;18.204;2023-12-20T18:10:56;27.70;;;7.80;;
57335;SDS011;43171;50.994;18.204;2023-12-20T18:13:22;24.00;;;12.10;;
57335;SDS011;43171;50.994;18.204;2023-12-20T18:23:04;7.10;;;4.60;;
57335;SDS011;43171;50.994;18.204;2023-12-20T18:32:48;9.10;;;4.20;;
57335;SDS011;43171;50.994;18.204;2023-12-20T18:42:31;9.20;;;4.80;;
57335;SDS011;43171;50.994;18.204;2023-12-20T18:52:17;9.40;;;4.50;;
57335;SDS011;43171;50.994;18.204;2023-12-20T19:02:01;2.30;;;1.90;;
57335;SDS011;43171;50.994;18.204;2023-12-20T19:11:48;3.00;;;2.70;;
57335;SDS011;43171;50.994;18.204;2023-12-20T19:21:30;4.10;;;3.00;;
57335;SDS011;43171;50.994;18.204;2023-12-20T19:31:12;7.50;;;4.10;;
57335;SDS011;43171;50.994;18.204;2023-12-20T19:40:56;3.40;;;2.60;;
57335;SDS011;43171;50.994;18.204;2023-12-20T19:50:39;6.60;;;2.50;;
57335;SDS011;43171;50.994;18.204;2023-12-20T20:00:24;5.70;;;3.90;;
57335;SDS011;43171;50.994;18.204;2023-12-20T20:10:06;3.60;;;3.20;;
57335;SDS011;43171;50.994;18.204;2023-12-20T20:19:50;8.50;;;3.00;;
57335;SDS011;43171;50.994;18.204;2023-12-20T20:29:34;7.80;;;4.10;;
57335;SDS011;43171;50.994;18.204;2023-12-20T20:39:19;6.80;;;3.40;;
57335;SDS011;43171;50.994;18.204;2023-12-20T20:49:01;3.60;;;2.40;;
57335;SDS011;43171;50.994;18.204;2023-12-20T20:58:44;12.90;;;5.30;;
57335;SDS011;43171;50.994;18.204;2023-12-20T21:08:27;9.80;;;3.80;;
57335;SDS011;43171;50.994;18.204;2023-12-20T21:18:15;7.30;;;5.70;;
57335;SDS011;43171;50.994;18.204;2023-12-20T21:28:02;3.50;;;3.20;;
57335;SDS011;43171;50.994;18.204;2023-12-20T21:37:51;8.00;;;3.60;;
57335;SDS011;43171;50.994;18.204;2023-12-20T21:47:35;13.20;;;3.20;;
57335;SDS011;43171;50.994;18.204;2023-12-20T21:57:16;8.90;;;4.10;;
57335;SDS011;43171;50.994;18.204;2023-12-20T22:06:59;5.70;;;4.20;;
57335;SDS011;43171;50.994;18.204;2023-12-20T22:16:41;5.60;;;4.50;;
57335;SDS011;43171;50.994;18.204;2023-12-20T22:26:23;3.10;;;2.90;;
57335;SDS011;43171;50.994;18.204;2023-12-20T22:36:05;5.00;;;3.80;;
57335;SDS011;43171;50.994;18.204;2023-12-20T22:45:49;6.90;;;4.90;;
57335;SDS011;43171;50.994;18.204;2023-12-20T22:55:32;9.70;;;5.70;;
57335;SDS011;43171;50.994;18.204;2023-12-20T23:05:18;9.70;;;4.80;;
57335;SDS011;43171;50.994;18.204;2023-12-20T23:15:01;6.80;;;5.20;;
57335;SDS011;43171;50.994;18.204;2023-12-20T23:24:44;12.00;;;8.30;;
57335;SDS011;43171;50.994;18.204;2023-12-20T23:34:28;11.60;;;6.70;;
57335;SDS011;43171;50.994;18.204;2023-12-20T23:44:10;4.70;;;3.90;;
57335;SDS011;43171;50.994;18.204;2023-12-20T23:53:52;7.20;;;5.20;;
